sensor_id;sensor_type;location;lat;lon;timestamp;P1;durP1;ratioP1;P2;durP2;ratioP2
17193;SDS011;8713;48.388;10.928;2022-07-10T05:17:09;5.30;;;3.30;;
17193;SDS011;8713;48.388;10.928;2022-07-10T05:18:18;4.22;;;3.05;;
17193;SDS011;8713;48.388;10.928;2022-07-10T05:19:28;5.07;;;3.22;;
17193;SDS011;8713;48.388;10.928;2022-07-10T05:20:37;4.55;;;2.90;;
17193;SDS011;8713;48.388;10.928;2022-07-10T05:21:50;5.95;;;3.78;;
17193;SDS011;8713;48.388;10.928;2022-07-10T05:23:00;4.18;;;3.33;;
17193;SDS011;8713;48.388;10.928;2022-07-10T05:24:09;4.53;;;3.30;;
17193;SDS011;8713;48.388;10.928;2022-07-10T05:25:19;5.63;;;3.72;;
17193;SDS011;8713;48.388;10.928;2022-07-10T05:26:28;6.47;;;3.75;;
17193;SDS011;8713;48.388;10.928;2022-07-10T05:27:38;5.53;;;3.33;;
17193;SDS011;8713;48.388;10.928;2022-07-10T05:28:47;5.10;;;3.47;;
17193;SDS011;8713;48.388;10.928;2022-07-10T05:29:57;6.13;;;3.30;;
17193;SDS011;8713;48.388;10.928;2022-07-10T05:31:07;6.65;;;3.30;;
17193;SDS011;8713;48.388;10.928;2022-07-10T05:32:16;5.82;;;3.30;;
17193;SDS011;8713;48.388;10.928;2022-07-10T05:33:26;4.25;;;3.08;;
17193;SDS011;8713;48.388;10.928;2022-07-10T05:34:37;6.45;;;3.17;;
17193;SDS011;8713;48.388;10.928;2022-07-10T05:35:46;4.63;;;2.97;;
17193;SDS011;8713;48.388;10.928;2022-07-10T05:36:56;5.57;;;3.30;;
17193;SDS011;8713;48.388;10.928;2022-07-10T05:38:05;6.18;;;3.35;;
17193;SDS011;8713;48.388;10.928;2022-07-10T05:39:15;5.35;;;3.13;;
17193;SDS011;8713;48.388;10.928;2022-07-10T05:40:24;6.90;;;3.25;;
17193;SDS011;8713;48.388;10.928;2022-07-10T05:41:34;5.05;;;2.90;;
17193;SDS011;8713;48.388;10.928;2022-07-10T05:42:45;5.40;;;3.20;;
17193;SDS011;8713;48.388;10.928;2022-07-10T05:43:54;4.80;;;3.25;;
17193;SDS011;8713;48.388;10.928;2022-07-10T05:45:04;4.68;;;2.95;;
17193;SDS011;8713;48.388;10.928;2022-07-10T05:46:14;5.53;;;3.00;;
17193;SDS011;8713;48.388;10.928;2022-07-10T05:47:24;4.55;;;2.90;;
17193;SDS011;8713;48.388;10.928;2022-07-10T05:48:33;5.55;;;2.85;;
17193;SDS011;8713;48.388;10.928;2022-07-10T05:49:43;4.72;;;2.95;;
17193;SDS011;8713;48.388;10.928;2022-07-10T05:50:52;4.25;;;3.00;;
17193;SDS011;8713;48.388;10.928;2022-07-10T05:52:02;4.43;;;2.78;;
17193;SDS011;8713;48.388;10.928;2022-07-10T05:53:11;4.88;;;3.05;;
17193;SDS011;8713;48.388;10.928;2022-07-10T05:54:21;4.78;;;2.72;;
17193;SDS011;8713;48.388;10.928;2022-07-10T05:55:30;5.32;;;2.63;;
17193;SDS011;8713;48.388;10.928;2022-07-10T05:56:40;5.55;;;2.80;;
17193;SDS011;8713;48.388;10.928;2022-07-10T05:57:49;4.45;;;2.22;;
17193;SDS011;8713;48.388;10.928;2022-07-10T05:58:59;5.57;;;2.63;;
17193;SDS011;8713;48.388;10.928;2022-07-10T06:00:09;5.55;;;2.45;;
17193;SDS011;8713;48.388;10.928;2022-07-10T06:01:22;5.45;;;2.72;;
17193;SDS011;8713;48.388;10.928;2022-07-10T06:02:32;5.03;;;2.42;;
17193;SDS011;8713;48.388;10.928;2022-07-10T06:03:42;2.83;;;2.30;;
17193;SDS011;8713;48.388;10.928;2022-07-10T06:04:52;5.28;;;2.50;;
17193;SDS011;8713;48.388;10.928;2022-07-10T06:06:01;6.15;;;2.83;;
17193;SDS011;8713;48.388;10.928;2022-07-10T06:07:11;4.47;;;2.30;;
17193;SDS011;8713;48.388;10.928;2022-07-10T06:08:20;4.57;;;2.70;;
17193;SDS011;8713;48.388;10.928;2022-07-10T06:09:30;4.65;;;2.55;;
17193;SDS011;8713;48.388;10.928;2022-07-10T06:10:39;4.20;;;2.40;;
17193;SDS011;8713;48.388;10.928;2022-07-10T06:11:49;3.88;;;2.10;;
17193;SDS011;8713;48.388;10.928;2022-07-10T06:12:58;6.25;;;2.65;;
17193;SDS011;8713;48.388;10.928;2022-07-10T06:14:08;4.00;;;2.28;;
17193;SDS011;8713;48.388;10.928;2022-07-10T06:15:18;4.18;;;2.40;;
17193;SDS011;8713;48.388;10.928;2022-07-10T06:16:27;3.72;;;2.00;;
17193;SDS011;8713;48.388;10.928;2022-07-10T06:17:36;3.75;;;2.33;;
17193;SDS011;8713;48.388;10.928;2022-07-10T06:18:46;3.75;;;2.22;;
17193;SDS011;8713;48.388;10.928;2022-07-10T06:19:56;4.22;;;2.15;;
17193;SDS011;8713;48.388;10.928;2022-07-10T06:21:05;5.07;;;2.42;;
17193;SDS011;8713;48.388;10.928;2022-07-10T06:22:14;3.35;;;2.38;;
17193;SDS011;8713;48.388;10.928;2022-07-10T06:23:39;2.88;;;2.13;;
17193;SDS011;8713;48.388;10.928;2022-07-10T06:24:48;4.85;;;2.10;;
17193;SDS011;8713;48.388;10.928;2022-07-10T06:25:58;3.13;;;2.00;;
17193;SDS011;8713;48.388;10.928;2022-07-10T06:27:07;4.80;;;2.38;;
17193;SDS011;8713;48.388;10.928;2022-07-10T06:28:17;4.30;;;2.30;;
17193;SDS011;8713;48.388;10.928;2022-07-10T06:29:27;5.18;;;2.08;;
17193;SDS011;8713;48.388;10.928;2022-07-10T06:30:37;3.97;;;2.03;;
17193;SDS011;8713;48.388;10.928;2022-07-10T06:31:46;3.67;;;1.90;;
17193;SDS011;8713;48.388;10.928;2022-07-10T06:32:55;3.78;;;2.00;;
17193;SDS011;8713;48.388;10.928;2022-07-10T06:34:05;6.22;;;2.10;;
17193;SDS011;8713;48.388;10.928;2022-07-10T06:35:14;4.28;;;2.15;;
17193;SDS011;8713;48.388;10.928;2022-07-10T06:36:24;3.15;;;1.88;;
17193;SDS011;8713;48.388;10.928;2022-07-10T06:37:33;4.55;;;1.90;;
17193;SDS011;8713;48.388;10.928;2022-07-10T06:38:43;3.92;;;2.00;;
17193;SDS011;8713;48.388;10.928;2022-07-10T06:39:52;6.00;;;2.33;;
17193;SDS011;8713;48.388;10.928;2022-07-10T06:41:02;3.17;;;2.08;;
17193;SDS011;8713;48.388;10.928;2022-07-10T06:42:11;4.65;;;2.25;;
17193;SDS011;8713;48.388;10.928;2022-07-10T06:43:22;3.63;;;2.03;;
17193;SDS011;8713;48.388;10.928;2022-07-10T06:44:32;3.17;;;1.85;;
17193;SDS011;8713;48.388;10.928;2022-07-10T06:45:42;2.97;;;2.00;;
17193;SDS011;8713;48.388;10.928;2022-07-10T06:46:51;3.80;;;1.95;;
17193;SDS011;8713;48.388;10.928;2022-07-10T06:48:19;7.18;;;2.67;;
17193;SDS011;8713;48.388;10.928;2022-07-10T06:49:29;3.15;;;1.70;;
17193;SDS011;8713;48.388;10.928;2022-07-10T06:50:38;2.58;;;1.70;;
17193;SDS011;8713;48.388;10.928;2022-07-10T06:51:48;3.75;;;1.90;;
17193;SDS011;8713;48.388;10.928;2022-07-10T06:53:00;5.63;;;2.20;;
17193;SDS011;8713;48.388;10.928;2022-07-10T06:54:11;2.90;;;1.90;;
17193;SDS011;8713;48.388;10.928;2022-07-10T06:55:21;3.95;;;2.05;;
17193;SDS011;8713;48.388;10.928;2022-07-10T06:56:30;2.83;;;1.95;;
17193;SDS011;8713;48.388;10.928;2022-07-10T06:57:40;4.82;;;2.17;;
17193;SDS011;8713;48.388;10.928;2022-07-10T06:58:49;4.30;;;1.90;;
17193;SDS011;8713;48.388;10.928;2022-07-10T06:59:58;4.63;;;2.03;;
17193;SDS011;8713;48.388;10.928;2022-07-10T07:01:08;4.03;;;1.90;;
17193;SDS011;8713;48.388;10.928;2022-07-10T07:02:18;3.08;;;1.77;;
17193;SDS011;8713;48.388;10.928;2022-07-10T07:03:28;3.80;;;1.67;;
17193;SDS011;8713;48.388;10.928;2022-07-10T07:04:37;4.28;;;2.00;;
17193;SDS011;8713;48.388;10.928;2022-07-10T07:05:47;4.80;;;2.05;;
17193;SDS011;8713;48.388;10.928;2022-07-10T07:06:56;3.45;;;2.00;;
17193;SDS011;8713;48.388;10.928;2022-07-10T07:08:06;3.72;;;1.73;;
17193;SDS011;8713;48.388;10.928;2022-07-10T07:09:15;3.88;;;1.92;;
17193;SDS011;8713;48.388;10.928;2022-07-10T07:10:25;3.30;;;1.80;;
17193;SDS011;8713;48.388;10.928;2022-07-10T07:11:34;4.13;;;1.70;;
17193;SDS011;8713;48.388;10.928;2022-07-10T07:12:43;3.15;;;1.50;;
17193;SDS011;8713;48.388;10.928;2022-07-10T07:13:53;4.18;;;1.60;;
17193;SDS011;8713;48.388;10.928;2022-07-10T07:15:03;3.40;;;1.92;;
17193;SDS011;8713;48.388;10.928;2022-07-10T07:16:13;3.30;;;1.90;;
17193;SDS011;8713;48.388;10.928;2022-07-10T07:17:27;4.45;;;2.17;;
17193;SDS011;8713;48.388;10.928;2022-07-10T07:18:42;6.78;;;2.00;;
17193;SDS011;8713;48.388;10.928;2022-07-10T07:19:58;5.25;;;2.25;;
17193;SDS011;8713;48.388;10.928;2022-07-10T07:21:26;6.03;;;2.47;;
17193;SDS011;8713;48.388;10.928;2022-07-10T07:22:54;4.68;;;1.83;;
17193;SDS011;8713;48.388;10.928;2022-07-10T07:24:18;3.90;;;1.85;;
17193;SDS011;8713;48.388;10.928;2022-07-10T07:25:28;3.53;;;2.00;;
17193;SDS011;8713;48.388;10.928;2022-07-10T07:26:37;3.80;;;1.67;;
17193;SDS011;8713;48.388;10.928;2022-07-10T07:27:47;2.70;;;1.63;;
17193;SDS011;8713;48.388;10.928;2022-07-10T07:28:56;5.13;;;1.85;;
17193;SDS011;8713;48.388;10.928;2022-07-10T07:30:10;3.05;;;1.75;;
17193;SDS011;8713;48.388;10.928;2022-07-10T07:31:21;4.40;;;1.83;;
17193;SDS011;8713;48.388;10.928;2022-07-10T07:32:31;7.75;;;2.00;;
17193;SDS011;8713;48.388;10.928;2022-07-10T07:33:40;4.10;;;1.90;;
17193;SDS011;8713;48.388;10.928;2022-07-10T07:34:49;2.60;;;1.80;;
17193;SDS011;8713;48.388;10.928;2022-07-10T07:35:59;3.42;;;1.90;;
17193;SDS011;8713;48.388;10.928;2022-07-10T07:37:08;4.05;;;1.83;;
17193;SDS011;8713;48.388;10.928;2022-07-10T07:38:18;4.63;;;2.20;;
17193;SDS011;8713;48.388;10.928;2022-07-10T07:39:27;4.22;;;2.15;;
17193;SDS011;8713;48.388;10.928;2022-07-10T07:40:37;3.03;;;2.10;;
17193;SDS011;8713;48.388;10.928;2022-07-10T07:41:46;4.75;;;1.80;;
17193;SDS011;8713;48.388;10.928;2022-07-10T07:42:55;2.60;;;1.40;;
17193;SDS011;8713;48.388;10.928;2022-07-10T07:44:05;3.15;;;1.80;;
17193;SDS011;8713;48.388;10.928;2022-07-10T07:45:14;4.85;;;2.03;;
17193;SDS011;8713;48.388;10.928;2022-07-10T07:46:24;4.43;;;2.28;;
17193;SDS011;8713;48.388;10.928;2022-07-10T07:47:44;3.75;;;1.73;;
17193;SDS011;8713;48.388;10.928;2022-07-10T07:49:08;5.10;;;1.90;;
17193;SDS011;8713;48.388;10.928;2022-07-10T07:50:18;4.43;;;2.13;;
17193;SDS011;8713;48.388;10.928;2022-07-10T07:51:30;3.67;;;1.95;;
17193;SDS011;8713;48.388;10.928;2022-07-10T07:52:39;4.05;;;1.83;;
17193;SDS011;8713;48.388;10.928;2022-07-10T07:53:49;3.38;;;1.75;;
17193;SDS011;8713;48.388;10.928;2022-07-10T07:54:58;5.22;;;1.95;;
17193;SDS011;8713;48.388;10.928;2022-07-10T07:56:08;5.75;;;2.60;;
17193;SDS011;8713;48.388;10.928;2022-07-10T07:57:17;3.85;;;2.03;;
17193;SDS011;8713;48.388;10.928;2022-07-10T07:58:26;5.85;;;2.35;;
17193;SDS011;8713;48.388;10.928;2022-07-10T07:59:36;4.07;;;2.08;;
17193;SDS011;8713;48.388;10.928;2022-07-10T08:00:46;3.72;;;1.60;;
17193;SDS011;8713;48.388;10.928;2022-07-10T08:01:55;3.03;;;1.83;;
17193;SDS011;8713;48.388;10.928;2022-07-10T08:03:05;3.75;;;1.70;;
17193;SDS011;8713;48.388;10.928;2022-07-10T08:04:14;5.75;;;1.75;;
17193;SDS011;8713;48.388;10.928;2022-07-10T08:05:24;4.18;;;2.10;;
17193;SDS011;8713;48.388;10.928;2022-07-10T08:06:33;8.18;;;2.30;;
17193;SDS011;8713;48.388;10.928;2022-07-10T08:07:43;7.03;;;1.92;;
17193;SDS011;8713;48.388;10.928;2022-07-10T08:08:55;4.35;;;2.13;;
17193;SDS011;8713;48.388;10.928;2022-07-10T08:10:05;3.90;;;2.15;;
17193;SDS011;8713;48.388;10.928;2022-07-10T08:11:17;3.08;;;1.75;;
17193;SDS011;8713;48.388;10.928;2022-07-10T08:12:27;3.15;;;1.70;;
17193;SDS011;8713;48.388;10.928;2022-07-10T08:13:36;2.88;;;1.65;;
17193;SDS011;8713;48.388;10.928;2022-07-10T08:14:46;4.00;;;1.70;;
17193;SDS011;8713;48.388;10.928;2022-07-10T08:15:55;4.47;;;1.75;;
17193;SDS011;8713;48.388;10.928;2022-07-10T08:17:05;4.32;;;1.80;;
17193;SDS011;8713;48.388;10.928;2022-07-10T08:18:14;7.60;;;1.73;;
17193;SDS011;8713;48.388;10.928;2022-07-10T08:19:24;5.47;;;1.70;;
17193;SDS011;8713;48.388;10.928;2022-07-10T08:20:33;3.53;;;1.50;;
17193;SDS011;8713;48.388;10.928;2022-07-10T08:21:43;5.43;;;1.75;;
17193;SDS011;8713;48.388;10.928;2022-07-10T08:22:52;2.67;;;1.52;;
17193;SDS011;8713;48.388;10.928;2022-07-10T08:24:02;5.10;;;1.65;;
17193;SDS011;8713;48.388;10.928;2022-07-10T08:25:12;3.80;;;1.60;;
17193;SDS011;8713;48.388;10.928;2022-07-10T08:26:22;4.82;;;1.80;;
17193;SDS011;8713;48.388;10.928;2022-07-10T08:27:31;2.85;;;1.52;;
17193;SDS011;8713;48.388;10.928;2022-07-10T08:28:40;4.10;;;2.00;;
17193;SDS011;8713;48.388;10.928;2022-07-10T08:29:50;3.13;;;1.88;;
17193;SDS011;8713;48.388;10.928;2022-07-10T08:30:59;4.28;;;1.67;;
17193;SDS011;8713;48.388;10.928;2022-07-10T08:32:10;3.67;;;1.73;;
17193;SDS011;8713;48.388;10.928;2022-07-10T08:33:19;2.80;;;1.70;;
17193;SDS011;8713;48.388;10.928;2022-07-10T08:34:29;5.78;;;1.70;;
17193;SDS011;8713;48.388;10.928;2022-07-10T08:35:39;4.15;;;1.85;;
17193;SDS011;8713;48.388;10.928;2022-07-10T08:36:49;2.40;;;1.70;;
17193;SDS011;8713;48.388;10.928;2022-07-10T08:37:58;5.43;;;1.80;;
17193;SDS011;8713;48.388;10.928;2022-07-10T08:39:08;4.22;;;1.33;;
17193;SDS011;8713;48.388;10.928;2022-07-10T08:40:19;3.20;;;1.65;;
17193;SDS011;8713;48.388;10.928;2022-07-10T08:41:31;3.75;;;1.60;;
17193;SDS011;8713;48.388;10.928;2022-07-10T08:42:42;3.83;;;1.70;;
17193;SDS011;8713;48.388;10.928;2022-07-10T08:43:54;5.45;;;1.60;;
17193;SDS011;8713;48.388;10.928;2022-07-10T08:45:04;6.35;;;1.52;;
17193;SDS011;8713;48.388;10.928;2022-07-10T08:46:15;2.17;;;1.30;;
17193;SDS011;8713;48.388;10.928;2022-07-10T08:47:26;4.22;;;1.60;;
17193;SDS011;8713;48.388;10.928;2022-07-10T08:48:39;3.80;;;1.75;;
17193;SDS011;8713;48.388;10.928;2022-07-10T08:49:51;2.55;;;1.70;;
17193;SDS011;8713;48.388;10.928;2022-07-10T08:51:01;3.58;;;1.13;;
17193;SDS011;8713;48.388;10.928;2022-07-10T08:52:27;3.15;;;1.45;;
17193;SDS011;8713;48.388;10.928;2022-07-10T08:53:50;4.70;;;1.45;;
17193;SDS011;8713;48.388;10.928;2022-07-10T08:55:00;3.90;;;1.30;;
17193;SDS011;8713;48.388;10.928;2022-07-10T08:56:09;5.97;;;1.90;;
17193;SDS011;8713;48.388;10.928;2022-07-10T08:57:19;4.47;;;1.50;;
17193;SDS011;8713;48.388;10.928;2022-07-10T08:58:28;1.85;;;1.60;;
17193;SDS011;8713;48.388;10.928;2022-07-10T08:59:40;4.18;;;1.52;;
17193;SDS011;8713;48.388;10.928;2022-07-10T09:00:49;2.97;;;1.45;;
17193;SDS011;8713;48.388;10.928;2022-07-10T09:01:59;4.88;;;1.70;;
17193;SDS011;8713;48.388;10.928;2022-07-10T09:03:08;4.28;;;1.30;;
17193;SDS011;8713;48.388;10.928;2022-07-10T09:04:18;5.28;;;1.50;;
17193;SDS011;8713;48.388;10.928;2022-07-10T09:05:30;2.15;;;1.40;;
17193;SDS011;8713;48.388;10.928;2022-07-10T09:06:40;3.15;;;1.55;;
17193;SDS011;8713;48.388;10.928;2022-07-10T09:07:49;2.92;;;1.40;;
17193;SDS011;8713;48.388;10.928;2022-07-10T09:10:13;3.10;;;1.40;;
17193;SDS011;8713;48.388;10.928;2022-07-10T09:11:22;3.47;;;1.40;;
17193;SDS011;8713;48.388;10.928;2022-07-10T09:14:04;2.65;;;1.40;;
17193;SDS011;8713;48.388;10.928;2022-07-10T09:15:18;4.38;;;1.60;;
17193;SDS011;8713;48.388;10.928;2022-07-10T09:16:31;4.10;;;1.30;;
17193;SDS011;8713;48.388;10.928;2022-07-10T09:17:52;2.90;;;1.48;;
17193;SDS011;8713;48.388;10.928;2022-07-10T09:19:19;2.15;;;1.35;;
17193;SDS011;8713;48.388;10.928;2022-07-10T09:20:32;3.65;;;1.55;;
17193;SDS011;8713;48.388;10.928;2022-07-10T09:21:43;2.50;;;1.30;;
17193;SDS011;8713;48.388;10.928;2022-07-10T09:22:54;2.88;;;1.40;;
17193;SDS011;8713;48.388;10.928;2022-07-10T09:24:07;3.88;;;1.40;;
17193;SDS011;8713;48.388;10.928;2022-07-10T09:25:17;4.30;;;1.50;;
17193;SDS011;8713;48.388;10.928;2022-07-10T09:26:27;2.20;;;1.10;;
17193;SDS011;8713;48.388;10.928;2022-07-10T09:27:44;2.35;;;1.38;;
17193;SDS011;8713;48.388;10.928;2022-07-10T09:29:05;2.38;;;1.33;;
17193;SDS011;8713;48.388;10.928;2022-07-10T09:30:31;3.50;;;1.23;;
17193;SDS011;8713;48.388;10.928;2022-07-10T09:31:47;2.63;;;1.30;;
17193;SDS011;8713;48.388;10.928;2022-07-10T09:33:17;2.55;;;1.40;;
17193;SDS011;8713;48.388;10.928;2022-07-10T09:37:27;2.88;;;1.30;;
17193;SDS011;8713;48.388;10.928;2022-07-10T09:41:13;1.92;;;1.15;;
17193;SDS011;8713;48.388;10.928;2022-07-10T09:46:32;2.70;;;1.20;;
17193;SDS011;8713;48.388;10.928;2022-07-10T09:49:10;1.10;;;0.80;;
17193;SDS011;8713;48.388;10.928;2022-07-10T09:51:42;3.08;;;1.30;;
17193;SDS011;8713;48.388;10.928;2022-07-10T09:52:54;1.75;;;1.17;;
17193;SDS011;8713;48.388;10.928;2022-07-10T09:54:23;2.97;;;1.20;;
17193;SDS011;8713;48.388;10.928;2022-07-10T09:55:34;2.35;;;1.40;;
17193;SDS011;8713;48.388;10.928;2022-07-10T09:56:45;3.72;;;1.48;;
17193;SDS011;8713;48.388;10.928;2022-07-10T09:57:57;2.08;;;1.20;;
17193;SDS011;8713;48.388;10.928;2022-07-10T09:59:15;1.90;;;1.00;;
17193;SDS011;8713;48.388;10.928;2022-07-10T10:00:27;3.25;;;0.95;;
17193;SDS011;8713;48.388;10.928;2022-07-10T10:01:42;8.43;;;1.20;;
17193;SDS011;8713;48.388;10.928;2022-07-10T10:03:02;5.30;;;1.30;;
17193;SDS011;8713;48.388;10.928;2022-07-10T10:04:16;2.78;;;1.20;;
17193;SDS011;8713;48.388;10.928;2022-07-10T10:05:37;2.83;;;1.20;;
17193;SDS011;8713;48.388;10.928;2022-07-10T10:06:57;4.07;;;1.33;;
17193;SDS011;8713;48.388;10.928;2022-07-10T10:08:12;1.95;;;1.35;;
17193;SDS011;8713;48.388;10.928;2022-07-10T10:10:08;4.05;;;1.20;;
17193;SDS011;8713;48.388;10.928;2022-07-10T10:11:05;1.30;;;1.10;;
17193;SDS011;8713;48.388;10.928;2022-07-10T10:12:17;2.92;;;1.30;;
17193;SDS011;8713;48.388;10.928;2022-07-10T10:13:40;3.17;;;1.23;;
17193;SDS011;8713;48.388;10.928;2022-07-10T10:14:50;3.13;;;1.10;;
17193;SDS011;8713;48.388;10.928;2022-07-10T10:16:00;1.77;;;0.98;;
17193;SDS011;8713;48.388;10.928;2022-07-10T10:17:10;2.00;;;1.30;;
17193;SDS011;8713;48.388;10.928;2022-07-10T10:18:21;3.30;;;1.30;;
17193;SDS011;8713;48.388;10.928;2022-07-10T10:19:32;2.97;;;1.30;;
17193;SDS011;8713;48.388;10.928;2022-07-10T10:21:01;2.47;;;1.10;;
17193;SDS011;8713;48.388;10.928;2022-07-10T10:22:13;2.33;;;1.27;;
17193;SDS011;8713;48.388;10.928;2022-07-10T10:23:23;2.17;;;1.42;;
17193;SDS011;8713;48.388;10.928;2022-07-10T10:24:34;4.18;;;1.35;;
17193;SDS011;8713;48.388;10.928;2022-07-10T10:25:43;1.75;;;1.15;;
17193;SDS011;8713;48.388;10.928;2022-07-10T10:26:53;2.40;;;1.17;;
17193;SDS011;8713;48.388;10.928;2022-07-10T10:28:04;2.05;;;0.82;;
17193;SDS011;8713;48.388;10.928;2022-07-10T10:29:16;2.08;;;0.90;;
17193;SDS011;8713;48.388;10.928;2022-07-10T10:30:25;3.78;;;1.10;;
17193;SDS011;8713;48.388;10.928;2022-07-10T10:31:35;1.15;;;0.90;;
17193;SDS011;8713;48.388;10.928;2022-07-10T10:32:44;1.42;;;0.80;;
17193;SDS011;8713;48.388;10.928;2022-07-10T10:33:54;2.20;;;1.00;;
17193;SDS011;8713;48.388;10.928;2022-07-10T10:35:04;5.50;;;1.13;;
17193;SDS011;8713;48.388;10.928;2022-07-10T10:36:43;2.03;;;1.17;;
17193;SDS011;8713;48.388;10.928;2022-07-10T10:37:53;1.63;;;1.00;;
17193;SDS011;8713;48.388;10.928;2022-07-10T10:39:08;3.75;;;1.30;;
17193;SDS011;8713;48.388;10.928;2022-07-10T10:40:33;1.52;;;1.10;;
17193;SDS011;8713;48.388;10.928;2022-07-10T10:43:19;1.70;;;0.93;;
17193;SDS011;8713;48.388;10.928;2022-07-10T10:44:30;2.28;;;1.30;;
17193;SDS011;8713;48.388;10.928;2022-07-10T10:45:40;2.55;;;0.85;;
17193;SDS011;8713;48.388;10.928;2022-07-10T10:48:04;2.00;;;0.90;;
17193;SDS011;8713;48.388;10.928;2022-07-10T10:49:14;1.73;;;0.90;;
17193;SDS011;8713;48.388;10.928;2022-07-10T10:50:38;1.30;;;1.00;;
17193;SDS011;8713;48.388;10.928;2022-07-10T10:52:04;2.67;;;1.00;;
17193;SDS011;8713;48.388;10.928;2022-07-10T10:53:22;1.38;;;0.80;;
17193;SDS011;8713;48.388;10.928;2022-07-10T10:58:45;3.58;;;0.90;;
17193;SDS011;8713;48.388;10.928;2022-07-10T10:59:54;2.67;;;1.13;;
17193;SDS011;8713;48.388;10.928;2022-07-10T11:01:05;1.65;;;0.90;;
17193;SDS011;8713;48.388;10.928;2022-07-10T11:02:33;2.53;;;1.15;;
17193;SDS011;8713;48.388;10.928;2022-07-10T11:08:02;0.80;;;0.80;;
17193;SDS011;8713;48.388;10.928;2022-07-10T11:09:22;2.00;;;0.70;;
17193;SDS011;8713;48.388;10.928;2022-07-10T11:10:44;2.38;;;1.08;;
17193;SDS011;8713;48.388;10.928;2022-07-10T11:12:00;3.30;;;1.15;;
17193;SDS011;8713;48.388;10.928;2022-07-10T11:13:14;1.20;;;0.82;;
17193;SDS011;8713;48.388;10.928;2022-07-10T11:14:27;1.92;;;0.90;;
17193;SDS011;8713;48.388;10.928;2022-07-10T11:16:51;3.15;;;1.10;;
17193;SDS011;8713;48.388;10.928;2022-07-10T11:18:03;2.15;;;0.82;;
17193;SDS011;8713;48.388;10.928;2022-07-10T11:19:18;1.88;;;0.98;;
17193;SDS011;8713;48.388;10.928;2022-07-10T11:20:31;2.00;;;0.90;;
17193;SDS011;8713;48.388;10.928;2022-07-10T11:21:46;1.65;;;0.80;;
17193;SDS011;8713;48.388;10.928;2022-07-10T11:26:58;3.40;;;1.00;;
17193;SDS011;8713;48.388;10.928;2022-07-10T11:29:59;3.25;;;1.48;;
17193;SDS011;8713;48.388;10.928;2022-07-10T11:31:08;2.63;;;1.10;;
17193;SDS011;8713;48.388;10.928;2022-07-10T11:32:18;1.27;;;0.70;;
17193;SDS011;8713;48.388;10.928;2022-07-10T11:33:27;3.08;;;0.85;;
17193;SDS011;8713;48.388;10.928;2022-07-10T11:34:37;1.70;;;0.70;;
17193;SDS011;8713;48.388;10.928;2022-07-10T11:35:47;2.33;;;0.93;;
17193;SDS011;8713;48.388;10.928;2022-07-10T11:36:59;2.70;;;0.70;;
17193;SDS011;8713;48.388;10.928;2022-07-10T11:38:08;1.35;;;0.60;;
17193;SDS011;8713;48.388;10.928;2022-07-10T11:39:18;1.13;;;0.73;;
17193;SDS011;8713;48.388;10.928;2022-07-10T11:40:27;1.35;;;0.88;;
17193;SDS011;8713;48.388;10.928;2022-07-10T11:41:43;1.95;;;0.90;;
17193;SDS011;8713;48.388;10.928;2022-07-10T11:42:55;3.13;;;1.05;;
17193;SDS011;8713;48.388;10.928;2022-07-10T11:44:06;1.95;;;0.70;;
17193;SDS011;8713;48.388;10.928;2022-07-10T11:45:31;2.65;;;0.88;;
17193;SDS011;8713;48.388;10.928;2022-07-10T11:46:45;2.22;;;0.90;;
17193;SDS011;8713;48.388;10.928;2022-07-10T11:47:58;3.03;;;0.80;;
17193;SDS011;8713;48.388;10.928;2022-07-10T11:49:08;1.38;;;0.80;;
17193;SDS011;8713;48.388;10.928;2022-07-10T11:50:17;2.05;;;0.80;;
17193;SDS011;8713;48.388;10.928;2022-07-10T11:51:28;0.98;;;0.68;;
17193;SDS011;8713;48.388;10.928;2022-07-10T11:52:39;4.18;;;1.00;;
17193;SDS011;8713;48.388;10.928;2022-07-10T11:53:53;0.65;;;0.65;;
17193;SDS011;8713;48.388;10.928;2022-07-10T11:55:14;1.90;;;0.90;;
17193;SDS011;8713;48.388;10.928;2022-07-10T11:56:29;1.65;;;0.70;;
17193;SDS011;8713;48.388;10.928;2022-07-10T11:57:44;2.55;;;0.65;;
17193;SDS011;8713;48.388;10.928;2022-07-10T11:59:02;3.33;;;1.08;;
17193;SDS011;8713;48.388;10.928;2022-07-10T12:00:22;2.38;;;0.98;;
17193;SDS011;8713;48.388;10.928;2022-07-10T12:01:45;1.30;;;0.95;;
17193;SDS011;8713;48.388;10.928;2022-07-10T12:02:56;3.63;;;0.80;;
17193;SDS011;8713;48.388;10.928;2022-07-10T12:04:07;1.73;;;0.80;;
17193;SDS011;8713;48.388;10.928;2022-07-10T12:05:33;2.08;;;0.80;;
17193;SDS011;8713;48.388;10.928;2022-07-10T12:06:47;1.65;;;0.73;;
17193;SDS011;8713;48.388;10.928;2022-07-10T12:07:57;2.50;;;0.80;;
17193;SDS011;8713;48.388;10.928;2022-07-10T12:09:08;3.50;;;0.98;;
17193;SDS011;8713;48.388;10.928;2022-07-10T12:10:19;3.03;;;0.95;;
17193;SDS011;8713;48.388;10.928;2022-07-10T12:11:29;1.55;;;0.75;;
17193;SDS011;8713;48.388;10.928;2022-07-10T12:12:39;1.02;;;0.63;;
17193;SDS011;8713;48.388;10.928;2022-07-10T12:13:49;1.17;;;0.63;;
17193;SDS011;8713;48.388;10.928;2022-07-10T12:15:00;4.43;;;1.05;;
17193;SDS011;8713;48.388;10.928;2022-07-10T12:16:09;2.03;;;0.77;;
17193;SDS011;8713;48.388;10.928;2022-07-10T12:17:19;1.30;;;0.90;;
17193;SDS011;8713;48.388;10.928;2022-07-10T12:18:28;2.97;;;0.95;;
17193;SDS011;8713;48.388;10.928;2022-07-10T12:19:40;0.80;;;0.77;;
17193;SDS011;8713;48.388;10.928;2022-07-10T12:20:50;1.52;;;0.80;;
17193;SDS011;8713;48.388;10.928;2022-07-10T12:22:02;1.13;;;0.60;;
17193;SDS011;8713;48.388;10.928;2022-07-10T12:23:11;2.80;;;1.00;;
17193;SDS011;8713;48.388;10.928;2022-07-10T12:24:24;1.90;;;0.75;;
17193;SDS011;8713;48.388;10.928;2022-07-10T12:25:35;1.65;;;0.77;;
17193;SDS011;8713;48.388;10.928;2022-07-10T12:26:44;2.90;;;0.73;;
17193;SDS011;8713;48.388;10.928;2022-07-10T12:27:57;3.63;;;0.80;;
17193;SDS011;8713;48.388;10.928;2022-07-10T12:29:11;1.02;;;0.85;;
17193;SDS011;8713;48.388;10.928;2022-07-10T12:30:37;2.67;;;0.70;;
17193;SDS011;8713;48.388;10.928;2022-07-10T12:31:56;2.03;;;0.75;;
17193;SDS011;8713;48.388;10.928;2022-07-10T12:33:13;4.25;;;1.15;;
17193;SDS011;8713;48.388;10.928;2022-07-10T12:37:11;0.88;;;0.80;;
17193;SDS011;8713;48.388;10.928;2022-07-10T12:39:54;3.35;;;0.82;;
17193;SDS011;8713;48.388;10.928;2022-07-10T12:41:13;2.28;;;0.65;;
17193;SDS011;8713;48.388;10.928;2022-07-10T12:42:29;1.50;;;0.80;;
17193;SDS011;8713;48.388;10.928;2022-07-10T12:43:39;2.95;;;1.20;;
17193;SDS011;8713;48.388;10.928;2022-07-10T12:44:49;3.67;;;0.88;;
17193;SDS011;8713;48.388;10.928;2022-07-10T12:46:18;1.52;;;0.80;;
17193;SDS011;8713;48.388;10.928;2022-07-10T12:47:42;2.47;;;0.90;;
17193;SDS011;8713;48.388;10.928;2022-07-10T12:49:06;1.13;;;0.80;;
17193;SDS011;8713;48.388;10.928;2022-07-10T12:50:17;1.23;;;0.60;;
17193;SDS011;8713;48.388;10.928;2022-07-10T12:51:27;0.90;;;0.70;;
17193;SDS011;8713;48.388;10.928;2022-07-10T12:52:39;2.45;;;0.77;;
17193;SDS011;8713;48.388;10.928;2022-07-10T12:53:48;1.33;;;0.77;;
17193;SDS011;8713;48.388;10.928;2022-07-10T12:55:17;4.50;;;1.00;;
17193;SDS011;8713;48.388;10.928;2022-07-10T12:56:34;3.20;;;0.90;;
17193;SDS011;8713;48.388;10.928;2022-07-10T12:59:02;0.70;;;0.57;;
17193;SDS011;8713;48.388;10.928;2022-07-10T13:00:17;1.85;;;0.75;;
17193;SDS011;8713;48.388;10.928;2022-07-10T13:01:41;0.80;;;0.70;;
17193;SDS011;8713;48.388;10.928;2022-07-10T13:03:08;1.25;;;0.65;;
17193;SDS011;8713;48.388;10.928;2022-07-10T13:04:23;1.55;;;0.88;;
17193;SDS011;8713;48.388;10.928;2022-07-10T13:05:34;5.03;;;0.82;;
17193;SDS011;8713;48.388;10.928;2022-07-10T13:06:44;1.00;;;0.70;;
17193;SDS011;8713;48.388;10.928;2022-07-10T13:08:04;1.38;;;0.80;;
17193;SDS011;8713;48.388;10.928;2022-07-10T13:09:22;0.75;;;0.50;;
17193;SDS011;8713;48.388;10.928;2022-07-10T13:10:34;2.13;;;0.80;;
17193;SDS011;8713;48.388;10.928;2022-07-10T13:11:44;0.73;;;0.50;;